Date,TemperatureHighF,TemperatureAvgF,TemperatureLowF,DewpointHighF,DewpointAvgF,DewpointLowF,HumidityHigh,HumidityAvg,HumidityLow,PressureMaxIn,PressureMinIn,WindSpeedMaxMPH,WindSpeedAvgMPH,GustSpeedMaxMPH,PrecipitationSumIn
2013-1-1,77,66,53,70,63,52,100,92,76,30.07,29.91,8,2,16,0.06
2013-1-2,56,51,44,54,48,43,96,89,79,30.18,30.00,6,1,11,0.07
2013-1-3,50,42,32,43,38,31,98,87,60,30.36,30.16,5,1,11,0.28
2013-1-4,60,44,32,41,33,29,92,68,35,30.43,30.31,7,1,11,0.00
2013-1-5,52,47,39,40,37,33,82,67,60,30.35,30.23,5,1,8,0.00
2013-1-6,51,48,41,49,44,39,98,88,67,30.28,30.16,7,0,11,0.17
2013-1-7,64,48,36,45,40,35,97,78,39,30.31,30.18,8,1,12,0.00
2013-1-8,66,57,46,62,53,42,94,87,79,30.22,30.11,7,1,11,0.00
2013-1-9,70,66,62,68,64,60,100,95,90,30.21,30.13,8,2,14,0.00
2013-1-10,72,67,62,70,66,62,100,98,91,30.20,29.97,12,3,18,0.29
2013-1-11,76,69,63,71,68,62,100,94,82,30.12,30.03,7,2,10,0.00
2013-1-12,77,70,68,73,69,68,100,96,83,30.08,29.95,9,2,13,0.00
2013-1-13,76,70,59,72,69,59,100,96,87,30.01,29.92,9,2,16,0.06
2013-1-14,60,53,44,59,53,44,100,98,95,30.10,30.00,6,1,11,0.02
2013-1-15,62,52,44,61,52,44,100,100,98,30.06,29.92,3,0,8,0.06
2013-1-16,54,47,40,54,47,40,100,97,91,30.06,29.93,5,1,9,0.02
2013-1-17,53,43,36,40,37,33,97,79,55,30.36,30.07,9,1,14,0.01
2013-1-18,60,42,33,43,37,32,99,84,46,30.50,30.36,8,1,11,0.00
2013-1-19,67,47,33,51,43,32,100,86,52,30.38,30.23,5,0,6,0.00
2013-1-20,68,51,35,54,45,35,100,83,48,30.26,30.12,3,0,8,0.00
2013-1-21,68,51,37,51,44,37,100,81,45,30.20,30.11,6,0,8,0.01
2013-1-22,64,48,37,43,37,31,98,67,40,30.35,30.20,7,1,11,0.00
2013-1-23,70,50,34,53,44,34,100,84,49,30.39,30.29,4,0,7,0.00
2013-1-24,75,56,40,60,51,40,100,86,60,30.33,30.22,4,0,8,0.00
2013-1-25,73,58,43,60,53,43,100,86,62,30.27,30.14,11,1,13,0.00
2013-1-26,74,60,48,65,57,48,100,91,67,30.24,30.17,3,0,5,0.01
2013-1-27,72,59,47,64,57,47,100,94,72,30.30,30.22,6,0,9,0.00
2013-1-28,76,65,52,67,62,52,100,92,71,30.26,30.12,8,1,13,0.01
2013-1-29,75,70,67,71,69,66,100,97,88,30.12,29.84,12,2,16,0.02
2013-1-30,72,61,42,71,57,34,100,88,62,30.13,29.70,13,3,26,0.60
2013-1-31,62,45,30,41,35,28,99,73,30,30.32,30.13,2,0,9,0.00
2013-2-1,64,44,37,43,39,31,100,85,40,30.39,30.30,6,0,10,0.00
2013-2-2,65,52,30,53,44,29,99,77,46,30.35,30.17,6,1,10,0.00
2013-2-3,69,52,40,53,45,33,100,81,26,30.25,30.11,4,0,8,0.00
2013-2-4,64,51,38,54,46,38,100,86,53,30.11,29.97,3,0,5,0.19
2013-2-5,70,61,52,64,59,52,99,93,81,30.03,29.93,7,1,11,0.44
2013-2-6,71,61,52,63,59,52,100,92,73,30.14,29.99,8,1,10,0.02
2013-2-7,78,62,52,65,59,51,100,91,61,30.00,29.78,7,1,16,1.56
2013-2-8,75,60,49,64,56,49,100,90,65,30.15,29.93,4,0,10,0.02
2013-2-9,68,58,47,58,54,45,97,86,70,30.23,30.08,5,1,9,0.00
2013-2-10,71,67,57,70,64,56,99,92,82,30.09,29.95,13,3,19,0.01
2013-2-11,70,62,57,69,61,57,100,97,90,30.11,29.97,8,1,14,0.32
2013-2-12,71,62,57,71,62,56,100,99,97,30.03,29.74,8,1,18,0.23
2013-2-13,67,52,41,67,51,41,100,97,84,30.06,29.76,5,0,13,0.30
2013-2-14,62,47,38,48,42,37,100,85,49,30.15,30.04,7,0,8,0.01
2013-2-15,67,49,34,51,42,34,100,82,41,30.17,30.04,4,0,8,0.00
2013-2-16,55,46,30,43,28,19,92,55,26,30.29,30.09,10,1,15,0.00
2013-2-17,57,41,28,37,32,26,99,74,37,30.38,30.26,4,1,10,0.00
2013-2-18,65,54,37,59,47,36,100,80,57,30.26,30.00,16,3,19,0.00
2013-2-19,68,61,43,62,48,30,100,68,25,30.21,29.96,9,1,16,0.27
2013-2-20,61,48,38,41,32,27,96,58,30,30.26,30.05,6,1,13,0.00
2013-2-21,66,56,46,66,49,37,98,79,66,30.05,29.84,10,2,17,0.00
2013-2-22,69,64,59,67,61,54,100,88,63,29.96,29.84,6,0,10,0.35
2013-2-23,59,58,55,59,57,54,100,98,94,29.94,29.74,7,0,9,1.59
2013-2-24,70,61,48,60,56,48,100,84,69,29.98,29.78,7,1,10,0.88
2013-2-25,68,63,60,68,62,60,100,97,89,29.80,29.48,13,3,23,3.72
2013-2-26,62,55,48,61,46,39,98,73,58,29.92,29.52,8,1,12,0.00
2013-2-27,66,54,44,51,47,42,98,82,45,30.02,29.91,2,0,12,0.00
2013-2-28,60,50,40,48,39,31,98,69,37,30.10,29.98,5,1,9,0.00
2013-3-1,63,48,37,44,37,32,97,69,35,30.15,29.98,5,0,11,0.00
2013-3-2,51,40,28,33,30,27,96,70,49,30.22,30.10,5,1,12,0.00
2013-3-3,57,40,27,38,28,23,98,67,28,30.25,30.12,5,1,12,0.00
2013-3-4,68,53,33,57,47,32,100,81,59,30.15,29.96,9,2,14,0.00
2013-3-5,76,64,44,65,56,40,91,77,56,30.16,29.93,8,1,14,0.00
2013-3-6,63,48,36,41,34,29,97,63,30,30.28,30.15,6,1,11,0.00
2013-3-7,64,48,35,46,38,33,98,71,41,30.33,30.21,4,1,11,0.00
2013-3-8,73,52,35,49,43,34,100,76,32,30.30,30.18,6,0,7,0.00
2013-3-9,70,58,44,60,53,43,99,86,59,30.19,30.01,9,3,14,0.00
2013-3-10,74,67,62,66,63,60,92,86,74,30.02,29.89,18,5,24,0.00
2013-3-11,68,55,41,66,52,41,99,89,70,29.99,29.83,7,1,16,0.08
2013-3-12,68,51,38,46,41,37,99,74,36,30.18,29.98,9,0,13,0.00
2013-3-13,68,52,38,45,35,25,97,60,21,30.36,30.18,8,1,15,0.00
2013-3-14,68,49,39,43,32,25,95,57,23,30.44,30.28,9,1,16,0.00
2013-3-15,72,56,37,55,46,37,99,73,37,30.30,30.14,7,0,13,0.00
2013-3-16,77,64,45,61,56,44,99,80,54,30.13,29.98,12,1,17,0.00
2013-3-17,76,64,50,66,60,50,100,89,62,29.99,29.87,5,1,9,0.01
2013-3-18,81,72,64,72,68,62,99,87,71,29.90,29.77,7,1,13,0.00
2013-3-19,79,66,55,68,57,51,99,76,42,30.02,29.86,7,1,12,0.01
2013-3-20,69,58,41,53,42,35,94,59,33,30.10,29.96,11,1,14,0.00
2013-3-21,68,52,37,46,40,33,97,66,29,30.07,29.89,5,1,12,0.00
2013-3-22,68,60,46,60,55,45,96,84,68,29.90,29.82,10,3,17,0.01
2013-3-23,74,69,62,71,67,58,100,93,85,29.85,29.58,6,1,12,0.21
2013-3-24,79,68,48,70,58,34,100,73,42,29.95,29.56,12,1,14,0.00
2013-3-25,61,48,35,35,30,23,87,53,24,30.22,29.95,16,1,16,0.00
2013-3-26,58,44,30,35,30,27,93,62,31,30.37,30.22,7,1,11,0.00
2013-3-27,62,45,29,41,35,28,98,71,36,30.44,30.28,6,0,10,0.00
2013-3-28,69,50,33,49,40,32,100,75,32,30.35,30.25,5,1,11,0.00
2013-3-29,72,53,38,56,48,37,99,85,49,30.33,30.20,8,0,12,0.00
2013-3-30,77,62,46,62,55,46,100,82,48,30.20,30.02,6,1,14,0.00
2013-3-31,80,63,54,68,61,53,100,93,65,30.06,29.87,6,0,14,0.46
2013-4-1,77,62,52,64,58,52,100,87,49,30.06,29.91,8,0,8,0.01
2013-4-2,79,64,46,62,55,46,100,77,41,30.11,29.99,6,1,11,0.00
2013-4-3,66,60,55,63,58,52,99,94,88,30.06,29.74,16,1,30,2.54
2013-4-4,71,59,53,62,55,51,99,88,70,29.96,29.86,4,0,9,0.00
2013-4-5,70,56,47,55,50,46,97,80,50,30.11,29.96,9,1,11,0.00
2013-4-6,74,61,40,57,51,40,100,73,41,30.16,30.08,5,1,14,0.00
2013-4-7,78,62,47,63,57,47,100,84,52,30.12,30.01,7,1,11,0.00
2013-4-8,81,69,56,71,65,55,100,88,67,30.05,29.95,14,2,17,0.00
2013-4-9,82,74,70,73,70,69,97,88,72,30.06,29.94,12,4,17,0.00
2013-4-10,81,74,70,73,70,68,96,88,73,30.00,29.86,15,4,19,0.00
2013-4-11,80,71,58,76,70,56,99,96,85,29.86,29.59,10,2,22,2.01
2013-4-12,76,62,51,56,52,49,95,74,41,29.96,29.80,7,1,14,0.00
2013-4-13,80,66,48,60,54,47,100,72,35,30.04,29.89,6,1,10,0.00
2013-4-14,68,63,57,66,62,56,100,96,85,29.95,29.74,9,2,21,1.85
2013-4-15,80,71,66,74,70,66,100,95,81,30.01,29.80,5,1,10,0.00
2013-4-16,82,74,69,76,72,68,99,92,78,30.11,29.99,7,2,12,0.00
2013-4-17,84,74,67,76,71,67,100,92,76,30.10,29.98,12,2,14,0.00
2013-4-18,80,74,69,74,71,67,96,90,81,29.98,29.84,12,3,18,0.00
2013-4-19,75,56,44,74,55,44,100,96,88,30.17,29.79,8,1,17,1.68
2013-4-20,71,56,39,49,45,39,100,71,38,30.25,30.10,9,1,12,0.01
2013-4-21,75,60,45,59,50,44,98,72,40,30.20,30.09,13,1,13,0.00
2013-4-22,79,65,50,68,60,50,100,86,67,30.12,30.03,7,1,11,0.00
2013-4-23,77,69,57,69,65,57,100,88,71,30.10,30.02,10,2,14,0.00
2013-4-24,73,68,63,71,67,63,99,96,89,30.14,29.98,8,0,19,0.46
2013-4-25,77,65,55,65,58,53,99,81,59,30.27,30.14,7,1,13,0.00
2013-4-26,79,67,52,63,56,49,96,72,41,30.28,30.20,10,1,13,0.00
2013-4-27,81,72,60,70,66,59,100,83,65,30.20,30.03,8,2,13,0.00
2013-4-28,81,70,64,73,68,64,100,94,77,30.06,29.94,5,0,9,0.11
2013-4-29,82,72,65,74,68,65,100,90,64,29.97,29.87,6,0,6,0.55
2013-4-30,79,70,62,72,68,62,100,93,75,29.94,29.85,8,2,12,0.16
2013-5-1,78,69,63,74,68,63,100,97,87,29.91,29.81,10,2,17,5.32
2013-5-2,73,66,63,69,66,63,100,97,85,29.95,29.84,8,2,12,0.32
2013-5-3,77,70,65,69,67,65,100,89,74,29.91,29.81,7,2,10,0.09
2013-5-12,80,72,62,64,60,-100,93,69,53,30.12,30.05,6,-8,12,0.00
2013-5-13,81,65,50,58,52,44,99,69,33,30.28,30.11,12,1,12,0.00
2013-5-14,83,68,51,64,58,51,100,77,37,30.27,30.16,5,1,10,0.00
2013-5-15,84,67,55,68,60,53,100,82,36,30.21,30.03,6,0,10,0.00
2013-5-16,82,74,67,73,70,65,99,87,74,30.05,29.95,9,1,12,0.00
2013-5-17,84,76,70,76,73,69,99,89,68,30.05,29.96,8,1,12,0.00
2013-5-18,87,79,72,76,74,72,99,86,66,30.07,29.99,5,1,9,0.00
2013-5-19,84,77,71,77,74,71,100,91,79,30.03,29.97,6,1,11,0.00
2013-5-20,89,79,71,79,74,71,100,86,62,30.02,29.95,9,1,14,0.01
2013-5-21,86,78,68,77,73,68,100,86,68,29.98,29.86,9,1,11,0.00
2013-5-22,84,73,67,74,70,67,100,91,68,30.05,29.89,4,0,13,0.18
2013-5-23,91,78,65,78,72,65,100,84,58,30.04,29.93,4,0,8,0.00
2013-5-24,90,79,68,74,69,61,100,74,51,30.14,30.01,8,1,13,0.00
2013-5-25,87,74,63,66,60,53,97,65,38,30.23,30.12,7,1,11,0.00
2013-5-26,86,75,61,73,66,60,100,77,45,30.19,30.10,5,1,13,0.00
2013-5-27,85,78,67,73,69,62,93,76,48,30.15,30.05,9,2,18,0.00
2013-5-28,86,75,60,74,69,60,100,83,64,30.08,30.01,9,2,13,0.00
2013-5-29,84,79,74,77,74,72,95,86,75,30.04,29.98,10,3,17,0.05
2013-5-30,82,78,76,76,74,73,94,87,78,30.04,29.97,9,4,17,0.04
2013-5-31,86,80,76,78,76,74,95,87,77,30.03,29.95,14,3,14,0.03
2013-6-1,86,80,76,79,77,74,96,89,79,29.99,29.92,5,1,13,0.00
2013-6-2,90,80,70,77,74,68,99,81,60,29.98,29.85,7,1,11,0.02
2013-6-3,89,81,71,79,76,71,100,85,69,29.91,29.82,4,0,7,0.03
2013-6-4,91,82,71,80,76,71,100,84,66,29.93,29.87,6,2,12,0.01
2013-6-5,87,80,72,80,76,69,98,86,71,29.92,29.83,8,2,19,0.07
2013-6-6,91,76,66,75,70,65,100,84,56,29.85,29.72,5,1,15,0.04
2013-6-7,88,76,68,76,72,67,100,88,65,29.88,29.76,3,0,9,0.09
2013-6-8,88,79,70,78,74,68,100,86,65,30.02,29.87,9,1,12,0.46
2013-6-9,84,76,70,77,73,69,100,93,76,30.00,29.91,8,1,13,0.20
2013-6-10,86,79,72,78,76,72,100,91,75,30.04,29.94,5,0,9,1.03
2013-6-11,93,83,73,81,77,73,100,84,61,30.08,30.00,5,0,13,0.00
2013-6-12,94,81,72,80,76,72,100,87,55,30.08,29.99,5,0,11,0.00
2013-6-13,96,84,74,81,76,72,100,80,54,30.03,29.86,8,0,10,0.00
2013-6-14,95,83,76,81,75,70,98,78,47,29.93,29.84,6,1,12,0.04
2013-6-15,92,82,70,79,74,68,98,78,58,30.00,29.91,9,2,11,0.00
2013-6-16,90,82,74,83,78,75,100,89,68,30.03,29.96,5,0,9,0.19
2013-6-17,92,84,75,80,77,75,98,81,62,30.00,29.93,9,1,13,0.00
2013-6-18,93,84,75,79,76,73,97,79,56,29.99,29.88,5,1,12,0.75
2013-6-19,89,80,70,79,75,71,100,87,65,30.02,29.92,5,0,8,0.01
2013-6-20,92,77,71,79,74,69,100,91,61,30.08,29.99,7,0,10,1.17
2013-6-21,89,76,70,79,74,70,100,94,71,30.10,30.03,8,1,21,2.48
2013-6-22,90,78,71,78,75,71,100,89,59,30.09,29.98,9,1,11,0.00
2013-6-23,89,79,73,79,76,73,100,90,68,30.07,30.00,7,1,10,0.04
2013-6-24,88,79,73,79,76,73,100,90,70,30.15,30.05,4,0,9,0.10
2013-6-25,90,82,72,80,76,72,100,84,63,30.11,30.01,7,1,11,0.00
2013-6-26,91,82,75,81,78,75,100,86,67,30.06,29.96,7,1,11,0.00
2013-6-27,96,85,76,82,79,75,100,83,60,30.00,29.90,5,0,7,0.00
2013-6-28,95,86,78,83,80,77,100,83,58,29.91,29.75,6,1,11,0.00
2013-6-29,94,83,75,81,77,73,98,83,60,29.79,29.66,5,1,10,0.12
2013-6-30,94,82,72,76,72,63,100,75,37,29.77,29.69,4,0,7,0.01
2013-7-1,91,79,69,72,69,66,95,74,45,29.89,29.76,7,0,9,0.00
2013-7-2,91,80,69,74,71,68,97,77,51,29.98,29.88,5,1,9,0.00
2013-7-3,88,77,73,78,74,72,99,91,70,30.02,29.93,7,1,14,0.14
2013-7-4,90,79,71,79,75,71,100,89,68,29.97,29.90,6,2,14,0.07
2013-7-5,81,76,73,78,75,71,99,95,85,30.08,29.96,6,1,14,1.19
2013-7-6,77,74,71,76,74,71,100,98,93,30.04,29.96,4,1,8,5.13
2013-7-7,82,77,72,79,76,72,100,97,85,30.12,30.00,4,0,9,1.42
2013-7-8,86,76,72,79,75,72,100,97,77,30.16,30.06,6,0,10,0.57
2013-7-9,91,80,72,80,76,72,100,87,68,30.18,30.07,5,0,11,0.01
2013-7-10,91,79,73,80,76,73,100,91,65,30.10,29.96,6,0,6,0.03
2013-7-11,80,76,72,79,75,73,100,98,87,29.99,29.86,5,0,15,1.57
2013-7-12,92,78,71,80,74,69,100,89,62,29.92,29.84,8,1,17,0.14
2013-7-13,93,78,70,81,75,70,100,92,62,29.95,29.85,6,0,7,0.25
2013-7-14,89,80,71,77,74,71,100,85,62,30.01,29.90,5,1,9,0.01
2013-7-15,87,79,72,79,76,73,100,90,73,30.10,30.00,12,2,18,0.42
2013-7-16,86,79,74,79,76,73,100,90,76,30.17,30.06,11,2,18,0.03
2013-7-17,91,81,73,80,76,73,100,85,61,30.19,30.09,7,1,10,0.00
2013-7-18,91,80,72,80,76,72,100,89,65,30.13,29.99,7,1,9,0.20
2013-7-19,88,78,73,79,76,73,100,91,70,30.06,29.94,7,1,11,0.30
2013-7-20,88,80,74,80,77,74,100,89,72,29.99,29.91,12,1,12,0.03
2013-7-21,89,78,73,80,76,72,100,92,72,30.06,29.97,6,1,10,1.08
2013-7-22,87,77,72,81,76,72,100,96,82,30.06,29.99,6,0,17,1.24
2013-7-23,92,83,74,82,79,74,100,88,65,30.04,29.90,7,0,14,0.01
2013-7-24,93,84,78,80,78,75,97,84,61,29.95,29.86,7,1,12,0.00
2013-7-25,92,81,72,78,75,71,97,82,60,30.00,29.87,5,1,9,0.00
2013-7-26,95,82,72,80,76,71,100,83,47,30.04,29.94,4,0,10,0.00
2013-7-27,84,77,72,80,75,70,100,95,86,29.97,29.88,5,0,14,2.69
2013-7-28,90,81,74,79,76,74,100,87,68,29.99,29.84,5,1,8,0.01
2013-7-29,93,82,74,83,78,74,100,90,65,30.09,29.97,5,0,9,0.24
2013-7-30,92,83,75,83,79,75,100,88,67,30.13,30.04,6,0,9,0.04
2013-7-31,93,81,75,82,78,74,100,91,64,30.09,29.97,3,0,9,0.14
2013-8-1,92,78,74,81,76,74,100,95,66,30.00,29.89,6,0,10,0.49
2013-8-2,93,80,72,81,76,72,100,89,58,30.00,29.90,6,1,9,0.00
2013-8-3,95,83,74,82,77,70,100,84,47,30.05,29.96,4,0,6,0.00
2013-8-4,97,84,75,82,78,75,100,85,55,30.07,29.96,3,0,8,0.01
2013-8-5,94,81,75,84,77,73,100,90,64,30.03,29.92,4,0,9,0.30
2013-8-6,96,83,74,83,78,74,100,85,58,30.00,29.89,10,0,16,0.04
2013-8-7,94,83,75,84,79,75,100,90,63,29.97,29.89,7,0,14,0.11
2013-8-8,91,83,77,82,79,76,100,88,72,29.97,29.89,5,1,9,0.01
2013-8-9,90,82,77,81,79,76,100,89,69,30.03,29.92,10,1,16,0.02
2013-8-10,92,82,76,81,78,76,100,86,67,30.07,29.99,8,1,12,0.00
2013-8-11,92,84,76,81,78,75,100,84,65,30.11,30.05,8,1,12,0.00
2013-8-12,88,81,76,82,79,76,100,93,79,30.10,30.00,2,0,9,0.15
2013-8-13,96,80,73,83,77,73,100,92,63,30.02,29.93,4,0,11,0.22
2013-8-14,82,76,73,77,75,73,100,96,80,29.97,29.89,6,0,8,0.06
2013-8-15,88,78,72,78,75,72,100,89,68,29.97,29.90,5,0,7,0.01
2013-8-16,88,78,72,79,74,71,100,91,69,29.98,29.90,7,1,11,0.63
2013-8-17,76,74,72,74,73,72,100,96,91,29.99,29.90,7,1,9,0.07
2013-8-18,84,76,72,80,75,72,100,97,84,29.99,29.91,16,2,22,3.98
2013-8-19,90,79,72,80,76,72,100,89,67,30.04,29.96,4,1,9,0.00
2013-8-20,87,78,71,79,76,71,100,92,76,30.06,29.98,5,0,11,0.39
2013-8-21,91,80,74,81,77,74,100,91,64,30.12,30.03,7,0,14,0.11
2013-8-22,90,81,72,80,76,72,100,86,64,30.09,29.95,8,2,13,0.15
2013-8-23,83,77,74,78,75,74,100,93,80,30.01,29.93,7,1,12,0.01
2013-8-24,79,75,74,77,75,73,100,97,88,30.13,29.96,3,0,8,0.23
2013-8-25,84,77,73,78,75,73,100,94,76,30.17,30.07,7,1,11,0.03
2013-8-26,89,79,74,75,72,68,100,80,50,30.19,30.08,10,2,11,0.00
2013-8-27,89,77,66,73,69,66,100,80,51,30.11,30.02,6,0,10,0.00
2013-8-28,89,77,66,75,71,66,100,84,56,30.07,29.99,5,0,8,0.00
2013-8-29,92,80,68,76,72,68,100,80,51,30.06,29.96,5,0,8,0.00
2013-8-30,94,80,70,77,74,70,100,82,55,30.02,29.90,3,0,9,0.00
2013-8-31,94,82,72,80,75,71,99,83,57,29.96,29.84,6,0,7,0.00
2013-9-1,92,82,74,81,78,75,100,86,63,29.93,29.85,3,0,6,0.00
2013-9-2,93,82,75,83,77,74,100,87,63,29.98,29.87,4,0,6,0.24
2013-9-3,93,81,73,83,77,72,100,90,66,29.97,29.87,6,0,13,0.56
2013-9-4,91,80,72,82,77,72,100,90,67,30.05,29.94,2,0,9,0.01
2013-9-5,90,81,74,80,77,74,100,88,65,30.10,30.02,5,0,9,0.02
2013-9-6,92,81,73,78,76,73,100,85,56,30.09,29.97,3,0,6,0.00
2013-9-7,92,81,71,76,74,71,100,82,52,30.04,29.95,2,0,6,0.00
2013-9-8,91,80,71,77,75,71,100,85,59,29.99,29.92,2,0,8,0.00
2013-9-9,92,80,72,78,74,72,100,84,56,30.03,29.94,3,0,9,0.00
2013-9-10,91,80,73,77,75,72,100,86,57,30.10,30.01,8,1,16,0.00
2013-9-11,92,80,73,77,74,70,100,83,50,30.11,30.02,7,1,10,0.00
2013-9-12,91,80,70,79,74,71,100,85,58,30.03,29.91,6,0,8,0.00
2013-9-13,93,81,71,77,74,70,100,82,48,29.92,29.80,3,0,6,0.00
2013-9-14,87,78,72,75,72,70,98,81,61,29.97,29.84,5,0,10,0.00
2013-9-15,91,79,69,77,72,65,99,80,59,30.05,29.96,6,0,11,0.00
2013-9-16,93,80,72,79,75,71,100,87,58,30.07,29.98,7,0,14,1.10
2013-9-17,90,79,71,81,74,71,100,88,62,30.06,29.95,6,1,10,0.02
2013-9-18,88,80,74,78,75,73,98,86,65,30.06,29.99,8,1,12,0.01
2013-9-19,87,79,75,78,75,74,97,88,70,30.05,29.96,9,2,17,0.00
2013-9-20,89,80,73,80,77,73,100,90,73,29.99,29.82,8,1,16,0.02
2013-9-21,81,78,71,78,76,71,100,94,87,29.82,29.71,4,0,11,0.23
2013-9-22,81,73,69,72,70,67,99,89,74,29.80,29.72,7,1,10,0.02
2013-9-23,89,78,67,79,74,64,98,87,70,29.86,29.78,6,1,11,0.00
2013-9-24,87,78,72,80,76,72,100,95,78,29.87,29.75,9,1,13,1.09
2013-9-25,89,77,70,77,73,70,100,89,58,29.82,29.74,4,0,8,0.00
2013-9-26,90,77,69,75,69,62,100,79,41,29.93,29.79,5,0,7,0.01
2013-9-27,85,76,69,72,70,67,99,83,59,30.02,29.92,6,1,10,0.00
2013-9-28,87,74,65,71,68,64,100,82,50,30.06,29.99,7,1,8,0.00
2013-9-29,85,74,67,71,68,65,100,81,60,30.03,29.93,6,1,8,0.00
2013-9-30,85,74,70,73,71,68,99,88,66,29.98,29.91,4,0,11,0.03
2013-10-1,86,76,69,77,72,69,100,88,66,30.03,29.95,7,1,10,0.03
2013-10-2,84,76,73,77,74,73,100,93,75,30.05,29.96,8,1,9,0.19
2013-10-3,88,78,72,78,75,72,100,91,72,30.04,29.95,18,2,20,0.15
2013-10-4,88,79,73,79,76,73,100,91,74,30.04,29.96,11,1,15,0.21
2013-10-5,88,80,75,79,76,73,100,88,63,30.01,29.91,9,2,17,0.01
2013-10-6,80,75,67,77,74,63,100,94,85,29.91,29.77,6,1,11,1.26
2013-10-7,77,67,57,62,57,54,96,73,46,30.00,29.86,6,1,17,0.00
2013-10-8,78,64,53,62,58,53,98,83,54,30.01,29.95,3,0,8,0.01
2013-10-9,83,70,60,74,67,59,100,90,72,30.07,29.99,6,1,9,0.00
2013-10-10,83,72,65,72,68,65,100,89,67,30.10,29.99,3,1,9,0.00
2013-10-11,85,73,64,74,69,64,100,89,61,30.05,29.96,6,1,11,0.01
2013-10-12,87,75,65,76,69,65,100,86,54,30.08,29.98,5,0,8,0.00
2013-10-13,88,75,67,76,71,67,100,89,59,30.14,30.05,4,0,6,0.00
2013-10-14,86,73,64,69,67,64,100,84,51,30.10,30.00,4,0,7,0.01
2013-10-15,83,73,65,72,68,65,100,88,65,30.05,29.95,4,1,7,0.00
2013-10-16,84,75,65,73,69,65,100,85,60,30.01,29.91,3,0,8,0.00
2013-10-17,84,76,67,77,72,64,99,87,74,29.95,29.88,8,0,11,0.11
2013-10-18,77,68,63,65,63,61,96,83,60,30.02,29.90,7,1,9,0.00
2013-10-19,68,64,59,66,62,59,99,93,87,30.01,29.90,8,0,9,0.46
2013-10-20,74,63,54,62,58,54,100,88,58,30.05,29.97,6,1,9,0.01
2013-10-21,72,65,58,65,61,58,97,88,72,30.05,29.95,9,0,9,0.00
2013-10-22,80,68,58,68,61,57,98,83,46,29.97,29.87,3,0,9,0.00
2013-10-23,74,61,50,57,52,47,100,76,39,30.12,29.96,5,0,9,0.00
2013-10-24,78,59,45,58,51,45,100,80,35,30.21,30.10,5,0,7,0.00
2013-10-25,68,57,48,55,48,42,100,74,41,30.37,30.20,8,1,14,0.00
2013-10-26,74,55,41,52,45,39,98,73,36,30.30,30.15,5,0,6,0.00
2013-10-27,76,63,46,63,58,46,100,84,55,30.16,30.07,4,0,7,0.02
2013-10-28,80,64,55,68,60,55,100,90,62,30.19,30.08,7,0,9,0.00
2013-10-29,79,67,56,69,63,56,100,89,68,30.25,30.17,7,1,11,0.00
2013-10-30,80,69,60,71,66,60,100,92,73,30.20,30.05,7,1,10,0.01
2013-10-31,80,76,73,74,72,70,98,87,76,30.05,29.83,11,3,15,0.11
2013-11-1,80,69,55,73,66,54,99,89,64,29.91,29.77,5,0,14,0.07
2013-11-2,77,61,50,59,52,47,100,76,46,30.13,29.89,7,0,11,0.01
2013-11-3,68,54,43,50,46,43,99,78,45,30.22,30.12,7,1,10,0.00
2013-11-4,74,61,46,60,54,46,100,80,60,30.25,30.15,10,2,11,0.00
2013-11-5,74,66,60,64,59,54,91,78,66,30.24,30.13,10,3,15,0.00
2013-11-6,77,69,59,72,65,56,95,88,82,30.14,30.05,11,2,15,0.00
2013-11-7,70,60,48,69,55,41,99,85,64,30.26,30.02,12,1,13,0.01
2013-11-8,66,52,42,44,39,35,95,65,35,30.31,30.16,12,2,20,0.00
2013-11-9,74,58,42,62,53,41,98,85,66,30.24,30.14,7,1,9,0.00
2013-11-10,76,62,54,60,55,51,96,81,51,30.25,30.15,5,1,10,0.00
2013-11-11,77,60,46,58,52,45,99,76,42,30.22,30.12,5,1,7,0.00
2013-11-12,72,56,42,58,48,28,100,78,53,30.43,30.16,13,2,17,0.00
2013-11-13,55,42,34,33,27,23,87,57,33,30.50,30.39,8,2,17,0.00
2013-11-14,65,52,34,51,42,29,84,69,55,30.40,30.13,7,2,11,0.00
2013-11-15,73,63,57,70,61,51,100,93,74,30.13,29.97,7,1,10,0.36
2013-11-16,74,68,62,71,67,62,100,96,89,30.08,29.98,8,2,14,0.01
2013-11-17,80,73,69,75,72,68,100,97,83,29.99,29.90,6,1,13,0.38
2013-11-18,73,66,55,73,62,44,100,89,60,30.07,29.93,4,0,16,0.67
2013-11-19,65,54,45,45,42,38,81,65,41,30.14,30.02,6,1,15,0.00
2013-11-20,73,56,40,62,51,37,99,83,68,30.13,30.02,5,1,7,0.00
2013-11-21,68,63,56,64,60,55,98,92,83,30.22,30.12,8,2,10,0.00
2013-11-22,76,68,61,71,66,60,99,94,84,30.20,30.13,5,1,12,0.00
2013-11-23,66,60,50,65,58,43,99,92,75,30.27,30.14,13,2,16,0.00
2013-11-24,54,46,40,43,32,28,78,59,39,30.36,30.26,13,3,17,0.00
2013-11-25,66,51,39,66,46,29,100,83,63,30.29,29.85,9,3,16,0.17
2013-11-26,67,52,43,67,51,42,100,97,91,29.94,29.70,10,2,18,1.18
2013-11-27,49,40,29,42,34,28,98,81,50,30.39,29.95,8,2,21,0.02
2013-11-28,50,36,27,34,28,25,98,78,41,30.48,30.36,4,0,7,0.00
2013-11-29,60,40,26,39,31,26,100,77,31,30.53,30.40,6,1,8,0.01
2013-11-30,68,46,30,52,41,30,100,85,47,30.43,30.25,5,0,7,0.00
2013-12-1,71,52,36,56,48,36,100,88,55,30.27,30.00,5,0,5,0.01
2013-12-2,73,60,46,63,54,46,100,84,49,30.00,29.79,5,0,9,0.00
2013-12-3,75,68,62,68,66,62,98,92,80,29.84,29.75,8,1,17,0.00
2013-12-4,78,72,67,74,70,67,100,96,83,29.95,29.83,6,1,14,0.00
2013-12-5,78,73,70,75,73,70,100,98,91,30.02,29.94,9,2,16,0.08
2013-12-6,79,70,50,75,69,50,100,97,88,30.15,29.95,12,3,20,0.28
2013-12-7,50,43,41,49,42,40,99,97,95,30.29,30.14,14,2,15,0.12
2013-12-8,64,52,42,61,52,42,100,98,90,30.21,30.02,3,0,5,0.00
2013-12-9,70,62,55,68,60,55,100,93,79,30.12,30.01,6,1,10,0.02
2013-12-10,59,46,37,58,43,35,100,91,74,30.34,30.02,9,1,14,0.31
2013-12-11,62,48,35,48,40,33,96,77,56,30.39,30.28,5,0,8,0.00
2013-12-12,57,47,34,41,33,28,87,60,35,30.48,30.37,12,1,17,0.00
2013-12-13,62,48,30,53,42,28,94,81,68,30.37,29.99,6,1,9,0.00
2013-12-14,75,63,50,69,61,48,99,92,79,30.01,29.82,4,1,11,0.10
2013-12-15,50,43,33,47,38,33,98,83,67,30.30,30.00,7,1,17,0.00
2013-12-16,60,41,30,43,36,29,100,86,45,30.35,30.24,4,0,6,0.01
2013-12-17,66,45,31,46,38,31,100,83,36,30.33,30.21,3,0,7,0.00
2013-12-18,67,47,35,48,40,34,100,82,37,30.36,30.23,9,1,9,0.01
2013-12-19,71,55,36,60,51,36,100,89,67,30.23,30.05,8,1,11,0.00
2013-12-20,74,67,57,70,65,57,100,95,85,30.10,29.97,6,1,10,0.00
2013-12-21,75,71,69,73,71,69,100,98,94,29.96,29.82,11,3,18,0.04
2013-12-22,72,60,54,72,60,54,100,99,90,30.13,29.82,12,1,20,3.59
2013-12-23,55,47,37,55,45,34,100,91,82,30.42,30.08,7,1,14,0.09
2013-12-24,52,39,30,35,32,29,97,78,48,30.49,30.36,7,1,15,0.00
2013-12-25,49,39,27,35,31,26,97,75,53,30.40,30.28,5,0,6,0.00
2013-12-26,55,44,36,41,36,31,96,74,50,30.36,30.26,5,0,10,0.00
2013-12-27,61,50,40,41,38,36,86,64,42,30.38,30.24,8,1,14,0.00
2013-12-28,51,48,46,49,47,40,100,97,67,30.24,29.92,7,1,9,2.10
2013-12-29,59,49,42,52,48,42,100,94,69,30.11,29.92,3,0,8,0.02
2013-12-30,58,48,39,53,47,39,100,95,77,30.30,30.10,0,0,5,0.00
2013-12-31,49,45,43,49,43,40,98,92,84,30.41,30.27,4,1,10,0.03
2014-1-1,62,52,43,58,51,42,100,96,86,30.32,30.03,4,0,7,0.15
2014-1-2,60,51,35,58,47,28,100,85,65,30.32,29.90,9,2,21,0.20